Hauptseite
METAR-TAF:

METAR-TAF

Flughäfen :

Sion, Schweiz

Flughafen Sitten

Breite: 46-13N, Länge: 007-20E, Höhe: 482 m

Beobachtung

Neuester Wetterbericht von vor 29 Minuten, um 05:20 UTC
Wind 6 kt aus West, variierte zwischen Süd und Nordwest
Temperatur 14°C
Luftfeuchtigkeit 63%
Luftdruck 1017 hPa
Sichtweite 10 km oder mehr
Durchbrochene Bewölkung in der Höhe von 7000 ft

METAR: LSGS 260520Z 26006KT 190V310 9999 BKN070 14/07 Q1017

Zeit: 07:49 (05:49 UTC)

Prognose

Neuester Wetterbericht von vor 24 Minuten, um 05:25 UTC
Gültige Prognose vom 26 um 06 UTC bis 26 um 15 UTC
Wind 10 kt aus Südwest
Sichtweite 10 km oder mehr
Leicht bewölkt in der Höhe von 8000 ft

TAF: LSGS 260525Z 2606/2615 23010KT 9999 FEW080

Wetterbeobachtungen und Prognosen von mehr als 4000 Flughäfen (METAR und TAF Bericht).

Die verfügbaren Stationen werden durch gelbe und rote Markierungen auf der Karte dargestellt.

Führen Sie die Maus auf sie, um den Namen der Station zu sehen.

Darauf klicken, um die Beobachtung von Wetterbeobachtungen und Prognosen zu sehen.

Um die Karte zu ändern : klicken Sie auf den grünen Tasten mit einem schwarzen Kreuz Zum Vergrößern, auf den grünen Button mit einem Gedankenstrich zu verkleinern, oder auf die grünen Pfeile für benachbarte Karten.


METAR-TAF: